Time;durP1;ratioP1;P1;durP2;ratioP2;P2;SDS_P1;SDS_P2;PMS_P1;PMS_P2;Temp;Humidity;BMP_temperature;BMP_pressure;BME280_temperature;BME280_humidity;BME280_pressure;Samples;Min_cycle;Max_cycle;Signal;HPM_P1;HPM_P2
2022/09/20 00:00:49;;;;;;;7.40;4.40;;;;;;;11.49;100.00;102163.72;4953000;29;20034;-68
2022/09/20 00:03:16;;;;;;;8.55;3.55;;;;;;;11.49;100.00;102160.22;4953201;28;20031;-68
2022/09/20 00:05:44;;;;;;;9.68;3.60;;;;;;;11.49;100.00;102165.56;4952992;29;20034;-68
2022/09/20 00:08:12;;;;;;;10.82;3.85;;;;;;;11.45;100.00;102164.22;4952749;29;20067;-68
2022/09/20 00:10:38;;;;;;;6.93;3.03;;;;;;;11.46;100.00;102163.22;4952598;29;20063;-68
2022/09/20 00:13:07;;;;;;;7.32;3.20;;;;;;;11.46;100.00;102164.06;4952717;29;20102;-68
2022/09/20 00:15:33;;;;;;;12.18;4.60;;;;;;;11.46;100.00;102158.72;4952845;29;20090;-68
2022/09/20 00:17:58;;;;;;;7.90;3.25;;;;;;;11.47;100.00;102162.22;4952600;28;20471;-68
2022/09/20 00:20:24;;;;;;;11.85;4.95;;;;;;;11.45;100.00;102161.56;4952678;29;20038;-68
2022/09/20 00:22:50;;;;;;;7.20;4.45;;;;;;;11.45;100.00;102162.41;4952598;29;20019;-68
2022/09/20 00:25:16;;;;;;;18.58;5.15;;;;;;;11.44;100.00;102163.41;4952775;28;20472;-68
2022/09/20 00:27:44;;;;;;;13.48;4.68;;;;;;;11.43;100.00;102172.41;4952592;29;20123;-68
2022/09/20 00:30:10;;;;;;;11.23;5.25;;;;;;;11.40;100.00;102165.59;4952526;28;20479;-68
2022/09/20 00:32:35;;;;;;;13.35;3.85;;;;;;;11.42;100.00;102170.72;4952460;29;20065;-68
2022/09/20 00:35:12;;;;;;;11.80;4.30;;;;;;;11.39;100.00;102171.91;4952360;28;20035;-68
2022/09/20 00:37:40;;;;;;;12.27;4.68;;;;;;;11.36;100.00;102166.09;4952386;29;20786;-68
2022/09/20 00:40:15;;;;;;;11.63;4.90;;;;;;;11.38;100.00;102178.25;4952435;28;20503;-68
2022/09/20 00:42:40;;;;;;;12.75;4.88;;;;;;;11.37;100.00;102184.63;4952209;28;20039;-68
2022/09/20 00:45:29;;;;;;;10.23;4.82;;;;;;;11.38;100.00;102185.44;4952247;29;20039;-68
2022/09/20 00:48:13;;;;;;;9.88;4.03;;;;;;;11.34;100.00;102171.63;4952278;28;20110;-68
2022/09/20 00:50:50;;;;;;;9.63;3.75;;;;;;;11.32;100.00;102178.94;4952098;29;20023;-68
2022/09/20 00:53:17;;;;;;;8.93;4.05;;;;;;;11.31;100.00;102182.59;4952073;29;20039;-66
2022/09/20 00:55:48;;;;;;;7.88;3.60;;;;;;;11.30;100.00;102180.94;4952018;29;20037;-66
2022/09/20 00:58:14;;;;;;;9.23;4.57;;;;;;;11.30;100.00;102182.78;4951508;28;20027;-66
2022/09/20 01:00:42;;;;;;;8.55;4.10;;;;;;;11.27;100.00;102178.63;4950965;28;20034;-66
2022/09/20 01:03:09;;;;;;;11.15;4.47;;;;;;;11.25;100.00;102183.28;4951753;29;20027;-66
2022/09/20 01:05:37;;;;;;;12.13;4.15;;;;;;;11.23;100.00;102181.78;4951858;29;20042;-66
2022/09/20 01:08:03;;;;;;;10.57;4.80;;;;;;;11.22;100.00;102180.97;4951606;28;20035;-66
2022/09/20 01:10:30;;;;;;;9.25;4.13;;;;;;;11.17;100.00;102181.47;4951849;29;20987;-66
2022/09/20 01:12:55;;;;;;;11.95;4.82;;;;;;;11.19;100.00;102179.47;4951563;28;20062;-66
2022/09/20 01:15:23;;;;;;;8.20;4.38;;;;;;;11.19;100.00;102175.97;4951620;29;20062;-66
2022/09/20 01:17:52;;;;;;;9.43;4.45;;;;;;;11.19;100.00;102181.31;4933274;29;20036;-66
2022/09/20 01:20:28;;;;;;;12.27;4.75;;;;;;;11.17;100.00;102181.47;4945952;28;20030;-66
2022/09/20 01:23:18;;;;;;;8.63;4.28;;;;;;;11.18;100.00;102188.47;4951602;29;20094;-65
2022/09/20 01:25:58;;;;;;;9.18;3.70;;;;;;;11.17;100.00;102178.78;4951571;29;20429;-65
2022/09/20 01:28:26;;;;;;;10.25;4.60;;;;;;;11.14;100.00;102176.47;4940194;29;20530;-66
2022/09/20 01:31:14;;;;;;;10.63;4.53;;;;;;;11.16;100.00;102173.59;4933204;29;20031;-66
2022/09/20 01:33:42;;;;;;;16.73;4.15;;;;;;;11.16;100.00;102173.59;4951417;29;20023;-65
2022/09/20 01:36:10;;;;;;;11.02;5.10;;;;;;;11.15;100.00;102172.78;4933245;29;20041;-66
2022/09/20 01:38:35;;;;;;;15.27;4.43;;;;;;;11.14;100.00;102165.78;4932770;29;20036;-65
2022/09/20 01:41:06;;;;;;;10.17;4.00;;;;;;;11.15;100.00;102167.44;4932949;29;20090;-66
2022/09/20 01:43:39;;;;;;;10.98;3.88;;;;;;;11.12;100.00;102162.44;4933032;29;20384;-65
2022/09/20 01:46:23;;;;;;;9.68;4.90;;;;;;;11.15;100.00;102172.78;4932973;29;20031;-66
2022/09/20 01:48:54;;;;;;;9.23;4.07;;;;;;;11.10;100.00;102160.94;4933026;29;20063;-65
2022/09/20 01:51:50;;;;;;;9.87;4.50;;;;;;;11.06;100.00;102160.44;4932910;29;20040;-65
2022/09/20 01:54:30;;;;;;;10.07;4.13;;;;;;;11.13;100.00;102177.47;4951046;29;20457;-66
2022/09/20 01:57:10;;;;;;;11.77;5.07;;;;;;;11.12;100.00;102164.28;4951251;29;20039;-66
2022/09/20 02:00:00;;;;;;;7.47;3.17;;;;;;;11.12;100.00;102174.97;4951210;28;20039;-65
2022/09/20 02:02:40;;;;;;;9.57;4.25;;;;;;;11.12;100.00;102174.97;4950512;28;20097;-66
2022/09/20 02:05:30;;;;;;;10.68;5.03;;;;;;;11.11;100.00;102179.47;4950775;28;20478;-66
2022/09/20 02:08:08;;;;;;;12.10;5.05;;;;;;;11.11;100.00;102183.97;4950787;29;20070;-65
2022/09/20 02:10:52;;;;;;;9.50;4.05;;;;;;;11.11;100.00;102176.81;4950490;28;20042;-66
2022/09/20 02:13:30;;;;;;;11.68;5.65;;;;;;;11.10;100.00;102180.44;4950940;28;20039;-65
2022/09/20 02:16:45;;;;;;;8.75;4.53;;;;;;;11.10;100.00;102176.94;4950505;28;20027;-65
2022/09/20 02:19:40;;;;;;;7.90;3.53;;;;;;;11.10;100.00;102176.94;4925700;29;20047;-66
2022/09/20 02:22:09;;;;;;;8.02;3.95;;;;;;;11.09;100.00;102181.47;4932462;29;20119;-66
2022/09/20 02:24:48;;;;;;;9.23;3.75;;;;;;;11.07;100.00;102172.78;4932463;29;20059;-65
2022/09/20 02:27:25;;;;;;;8.65;3.20;;;;;;;11.07;100.00;102171.94;4932558;29;20063;-65
2022/09/20 02:29:58;;;;;;;10.00;4.97;;;;;;;11.04;100.00;102166.94;4932469;29;20062;-65
2022/09/20 02:32:38;;;;;;;9.50;3.92;;;;;;;11.02;100.00;102161.78;4932527;29;20043;-65
2022/09/20 02:35:05;;;;;;;9.65;3.60;;;;;;;11.03;100.00;102157.25;4950463;29;20479;-66
2022/09/20 02:38:07;;;;;;;8.93;4.15;;;;;;;11.04;100.00;102156.28;4950643;28;20039;-66
2022/09/20 02:41:27;;;;;;;13.20;4.20;;;;;;;11.04;100.00;102156.28;4950593;29;20430;-66
2022/09/20 02:44:17;;;;;;;11.02;4.43;;;;;;;11.03;100.00;102147.44;4872949;29;20065;-66
2022/09/20 02:47:33;;;;;;;10.63;4.00;;;;;;;11.05;100.00;102163.28;4947205;28;20076;-66
2022/09/20 02:50:26;;;;;;;8.93;4.00;;;;;;;11.04;100.00;102161.63;4908022;29;20039;-66
2022/09/20 02:52:57;;;;;;;10.50;4.28;;;;;;;11.03;100.00;102159.94;4950497;28;20035;-65
2022/09/20 02:55:45;;;;;;;10.30;3.60;;;;;;;11.03;100.00;102159.94;4950447;29;20126;-65
2022/09/20 02:58:22;;;;;;;7.60;3.83;;;;;;;11.03;100.00;102162.59;4950568;28;20169;-65
2022/09/20 03:01:24;;;;;;;8.15;3.55;;;;;;;11.02;100.00;102163.59;4950291;29;20085;-66
2022/09/20 03:04:01;;;;;;;10.18;4.40;;;;;;;11.00;100.00;102166.44;4919440;29;20043;-65
2022/09/20 03:07:04;;;;;;;8.63;3.85;;;;;;;11.01;100.00;102169.97;4950533;29;20031;-66
2022/09/20 03:09:41;;;;;;;13.07;3.65;;;;;;;10.98;100.00;102165.78;4949750;29;20178;-66
2022/09/20 03:12:26;;;;;;;10.68;3.72;;;;;;;10.98;100.00;102173.78;4950314;29;20056;-66
2022/09/20 03:15:10;;;;;;;8.18;3.42;;;;;;;10.95;100.00;102164.28;4934517;29;20121;-65
2022/09/20 03:18:03;;;;;;;7.50;3.28;;;;;;;10.97;100.00;102172.13;4931627;29;20028;-66
2022/09/20 03:20:46;;;;;;;7.72;3.97;;;;;;;10.97;100.00;102166.78;4939626;29;20094;-65
2022/09/20 03:23:18;;;;;;;5.05;2.40;;;;;;;10.99;100.00;102170.13;4952175;28;20137;-66
2022/09/20 03:25:57;;;;;;;11.77;3.70;;;;;;;10.98;100.00;102165.78;4953837;29;20103;-65
2022/09/20 03:28:31;;;;;;;6.60;3.08;;;;;;;10.95;100.00;102158.94;4953752;28;20359;-66
2022/09/20 03:31:21;;;;;;;8.88;3.28;;;;;;;10.98;100.00;102157.78;4953701;29;20067;-65
2022/09/20 03:33:49;;;;;;;7.43;2.90;;;;;;;10.98;100.00;102163.13;4953670;28;20619;-66
2022/09/20 03:36:45;;;;;;;8.55;2.67;;;;;;;10.99;100.00;102159.44;4953539;29;20483;-66
2022/09/20 03:39:38;;;;;;;7.25;3.85;;;;;;;10.99;100.00;102151.44;4953614;28;20039;-66
2022/09/20 03:42:26;;;;;;;8.55;2.53;;;;;;;10.96;100.00;102160.59;4953205;29;20042;-66
2022/09/20 03:45:36;;;;;;;10.50;4.25;;;;;;;10.96;100.00;102165.94;4953535;29;20031;-65
2022/09/20 03:48:01;;;;;;;4.13;2.55;;;;;;;10.97;100.00;102166.78;4875649;29;20029;-66
2022/09/20 03:50:53;;;;;;;6.73;3.03;;;;;;;10.96;100.00;102171.28;4941796;29;20043;-66
2022/09/20 03:53:46;;;;;;;8.55;3.38;;;;;;;10.96;100.00;102165.94;4953396;29;20278;-66
2022/09/20 03:56:36;;;;;;;4.43;2.33;;;;;;;10.95;100.00;102166.09;4935911;29;20023;-66
2022/09/20 03:59:30;;;;;;;4.90;2.47;;;;;;;10.96;100.00;102170.47;4953055;28;20058;-65
2022/09/20 04:02:11;;;;;;;8.98;2.75;;;;;;;10.96;100.00;102163.28;4921536;29;20110;-65
2022/09/20 04:04:54;;;;;;;5.60;3.10;;;;;;;10.95;100.00;102158.09;4952738;28;20078;-66
2022/09/20 04:07:39;;;;;;;9.15;2.70;;;;;;;10.96;100.00;102162.44;4953019;29;20482;-66
2022/09/20 04:10:17;;;;;;;6.78;2.33;;;;;;;10.96;100.00;102165.13;4934428;29;20031;-66
2022/09/20 04:13:01;;;;;;;4.95;2.15;;;;;;;10.96;100.00;102165.94;4934550;29;20059;-66
2022/09/20 04:15:55;;;;;;;6.05;2.38;;;;;;;10.96;100.00;102165.94;4934594;29;20035;-66
2022/09/20 04:18:29;;;;;;;8.25;3.55;;;;;;;10.96;100.00;102165.13;4922235;29;20086;-66
2022/09/20 04:21:16;;;;;;;10.93;3.10;;;;;;;10.98;100.00;102171.13;4952499;29;20124;-66
2022/09/20 04:23:51;;;;;;;8.82;3.08;;;;;;;10.99;100.00;102169.28;4952506;29;20174;-66
2022/09/20 04:26:25;;;;;;;6.45;2.38;;;;;;;11.01;100.00;102172.63;4952666;29;20065;-65
2022/09/20 04:28:58;;;;;;;8.68;2.70;;;;;;;11.00;100.00;102165.59;4933802;29;20039;-66
2022/09/20 04:31:34;;;;;;;8.77;2.65;;;;;;;10.99;100.00;102169.28;4934061;29;20020;-66
2022/09/20 04:34:02;;;;;;;5.30;2.38;;;;;;;11.00;100.00;102166.44;4951782;28;20102;-65
2022/09/20 04:36:56;;;;;;;6.20;2.50;;;;;;;10.99;100.00;102169.28;4952391;29;20046;-66
2022/09/20 04:39:33;;;;;;;8.95;3.20;;;;;;;11.02;100.00;102168.94;4935031;29;20673;-66
2022/09/20 04:42:35;;;;;;;14.52;3.55;;;;;;;11.03;100.00;102179.47;4952064;28;20038;-66
2022/09/20 04:45:29;;;;;;;5.75;3.03;;;;;;;11.03;100.00;102176.81;4952242;29;20050;-66
2022/09/20 04:48:26;;;;;;;9.77;3.20;;;;;;;11.03;100.00;102168.78;4952221;29;20502;-66
2022/09/20 04:51:10;;;;;;;10.15;3.67;;;;;;;11.03;100.00;102173.28;4952168;28;20046;-66
2022/09/20 04:53:47;;;;;;;7.80;3.80;;;;;;;11.01;100.00;102169.97;4952107;28;20447;-65
2022/09/20 04:56:18;;;;;;;10.02;3.22;;;;;;;11.02;100.00;102175.13;4952029;29;20042;-65
2022/09/20 04:59:06;;;;;;;12.80;3.55;;;;;;;11.02;100.00;102177.78;4933756;29;20131;-66
2022/09/20 05:01:54;;;;;;;11.05;3.55;;;;;;;11.02;100.00;102177.78;4951837;29;20043;-66
2022/09/20 05:04:39;;;;;;;11.35;3.67;;;;;;;11.04;100.00;102180.31;4951715;29;20513;-66
2022/09/20 05:07:26;;;;;;;6.65;2.90;;;;;;;11.04;100.00;102183.81;4951768;28;20023;-65
2022/09/20 05:10:25;;;;;;;8.65;3.45;;;;;;;11.03;100.00;102179.47;4951663;29;20035;-65
2022/09/20 05:13:14;;;;;;;7.55;3.10;;;;;;;11.02;100.00;102175.13;4951849;28;20038;-66
2022/09/20 05:15:58;;;;;;;7.97;3.63;;;;;;;11.03;100.00;102184.81;4933434;29;20034;-66
2022/09/20 05:18:49;;;;;;;12.52;3.38;;;;;;;11.01;100.00;102180.63;4951436;29;20093;-66
2022/09/20 05:22:12;;;;;;;6.43;3.05;;;;;;;10.99;100.00;102182.63;4951298;28;20023;-65
2022/09/20 05:25:07;;;;;;;8.13;4.63;;;;;;;10.94;100.00;102191.13;4873918;29;20040;-65
2022/09/20 05:27:39;;;;;;;8.60;2.97;;;;;;;10.89;100.00;102190.78;4873963;29;20679;-65
2022/09/20 05:30:18;;;;;;;12.20;3.28;;;;;;;10.84;100.00;102187.78;4915676;29;20688;-66
2022/09/20 05:33:04;;;;;;;6.75;2.70;;;;;;;10.83;100.00;102194.13;4951471;29;20023;-65
2022/09/20 05:35:39;;;;;;;20.10;4.47;;;;;;;10.79;100.00;102201.63;4951311;29;20027;-66
2022/09/20 05:38:16;;;;;;;8.68;3.83;;;;;;;10.73;100.00;102205.78;4951409;29;20073;-65
2022/09/20 05:41:20;;;;;;;11.52;3.97;;;;;;;10.76;100.00;102209.97;4950971;29;20030;-66
2022/09/20 05:44:02;;;;;;;9.30;4.88;;;;;;;10.75;100.00;102206.47;4911625;28;20051;-66
2022/09/20 05:46:39;;;;;;;11.68;4.97;;;;;;;10.75;100.00;102208.31;4950728;28;20046;-65
2022/09/20 05:49:36;;;;;;;11.73;2.70;;;;;;;10.80;100.00;102219.31;4950943;29;20509;-65
2022/09/20 05:52:01;;;;;;;5.90;3.65;;;;;;;10.80;100.00;102213.97;4919726;28;20117;-65
2022/09/20 05:55:03;;;;;;;9.53;3.53;;;;;;;10.82;100.00;102216.47;4933812;29;20063;-65
2022/09/20 05:58:06;;;;;;;7.90;3.67;;;;;;;10.89;100.00;102222.81;4951136;29;20758;-65
2022/09/20 06:00:40;;;;;;;9.38;3.25;;;;;;;10.92;100.00;102223.31;4951106;29;20038;-66
2022/09/20 06:03:20;;;;;;;10.98;4.20;;;;;;;10.99;100.00;102228.03;4950564;29;20031;-65
2022/09/20 06:06:17;;;;;;;6.95;3.28;;;;;;;11.03;100.00;102224.84;4950902;29;20063;-66
2022/09/20 06:09:01;;;;;;;10.43;3.67;;;;;;;11.09;100.00;102224.19;4932511;29;20039;-66
2022/09/20 06:12:00;;;;;;;9.50;4.22;;;;;;;11.15;100.00;102223.50;4932415;29;20067;-66
2022/09/20 06:14:49;;;;;;;8.38;3.55;;;;;;;11.21;100.00;102227.34;4932694;29;20403;-66
2022/09/20 06:17:41;;;;;;;8.65;3.30;;;;;;;11.26;100.00;102226.84;4932538;29;20139;-64
2022/09/20 06:20:41;;;;;;;10.68;3.83;;;;;;;11.34;100.00;102229.50;4950749;29;20043;-64
2022/09/20 06:23:08;;;;;;;9.32;3.83;;;;;;;11.37;100.00;102232.72;4904108;29;20151;-63
2022/09/20 06:25:49;;;;;;;7.43;3.25;;;;;;;11.40;100.00;102235.03;4932529;29;20032;-64
2022/09/20 06:28:25;;;;;;;10.35;3.50;;;;;;;11.44;100.00;102232.03;4933458;29;20027;-65
2022/09/20 06:30:52;;;;;;;7.55;3.17;;;;;;;11.45;100.00;102229.19;4934253;28;20091;-65
2022/09/20 06:33:24;;;;;;;8.60;3.50;;;;;;;11.47;100.00;102237.03;4950574;28;20042;-65
2022/09/20 06:35:55;;;;;;;8.00;3.35;;;;;;;11.49;100.00;102235.84;4950465;29;20101;-65
2022/09/20 06:41:27;;;;;;;13.13;4.03;;;;;;;11.50;100.00;102234.88;4950386;28;20038;-65
2022/09/20 06:44:00;;;;;;;9.57;3.70;;;;;;;11.52;100.00;102226.66;4950578;29;20031;-65
2022/09/20 06:46:35;;;;;;;11.35;4.15;;;;;;;11.57;100.00;102243.03;4950519;29;20500;-65
2022/09/20 06:49:03;;;;;;;10.30;3.85;;;;;;;11.59;100.00;102241.84;4950444;29;20030;-66
2022/09/20 06:51:34;;;;;;;10.32;4.93;;;;;;;11.62;100.00;102240.69;4950202;29;20085;-66
2022/09/20 06:54:00;;;;;;;10.63;3.60;;;;;;;11.66;100.00;102244.69;4950407;28;20019;-66
2022/09/20 06:56:28;;;;;;;9.02;3.97;;;;;;;11.68;100.00;102242.66;4951469;28;20067;-66
2022/09/20 06:58:54;;;;;;;8.82;4.18;;;;;;;11.74;100.00;102244.69;4954210;29;20058;-66
2022/09/20 07:01:20;;;;;;;10.15;4.70;;;;;;;11.78;100.00;102246.00;4954002;28;20023;-66
2022/09/20 07:03:46;;;;;;;10.35;3.67;;;;;;;11.85;100.00;102246.16;4952915;29;20027;-65
2022/09/20 07:06:14;;;;;;;13.50;4.43;;;;;;;11.88;100.00;102239.66;4953899;29;20034;-65
2022/09/20 07:08:40;;;;;;;10.63;3.92;;;;;;;11.91;100.00;102247.34;4953981;29;20451;-65
2022/09/20 07:11:09;;;;;;;9.05;4.32;;;;;;;11.87;100.00;102238.84;4953390;29;20038;-65
2022/09/20 07:13:35;;;;;;;10.00;3.97;;;;;;;11.87;100.00;102244.19;4954039;29;20031;-65
2022/09/20 07:16:04;;;;;;;8.50;4.65;;;;;;;11.86;100.00;102253.19;4953887;29;20031;-65
2022/09/20 07:18:30;;;;;;;13.60;4.38;;;;;;;11.86;100.00;102247.84;4953546;29;20059;-65
2022/09/20 07:20:57;;;;;;;6.05;3.08;;;;;;;11.88;100.00;102250.38;4953648;29;20050;-65
2022/09/20 07:23:24;;;;;;;7.70;3.78;;;;;;;11.89;100.00;102244.81;4953666;28;20475;-65
2022/09/20 07:25:50;;;;;;;11.13;3.90;;;;;;;11.96;100.00;102253.00;4936373;29;20045;-67
2022/09/20 07:28:18;;;;;;;11.98;4.57;;;;;;;11.99;100.00;102244.66;4953788;28;20050;-66
2022/09/20 07:30:44;;;;;;;32.50;5.13;;;;;;;12.04;100.00;102255.66;4953726;29;20041;-65
2022/09/20 07:33:10;;;;;;;9.95;4.13;;;;;;;12.09;100.00;102252.47;4940172;28;20036;-65
2022/09/20 07:35:36;;;;;;;9.25;3.67;;;;;;;12.12;100.00;102260.16;4939740;28;20027;-66
2022/09/20 07:38:02;;;;;;;9.02;4.15;;;;;;;12.14;100.00;102260.81;4939206;28;20471;-65
2022/09/20 07:40:27;;;;;;;11.38;3.88;;;;;;;12.11;99.89;102253.97;4938853;28;20039;-66
2022/09/20 07:42:55;;;;;;;6.45;3.35;;;;;;;12.21;99.60;102261.81;4938789;28;20032;-67
2022/09/20 07:45:21;;;;;;;5.78;3.03;;;;;;;12.27;99.96;102269.97;4936621;28;20025;-66
2022/09/20 07:47:46;;;;;;;7.07;2.67;;;;;;;12.31;98.90;102264.25;4949422;28;20042;-65
2022/09/20 07:50:12;;;;;;;5.45;2.78;;;;;;;12.39;98.97;102272.25;4934920;29;20105;-65
2022/09/20 07:52:37;;;;;;;6.80;2.95;;;;;;;12.45;98.97;102263.53;4952799;29;20051;-65
2022/09/20 07:55:03;;;;;;;3.90;2.85;;;;;;;12.54;98.12;102270.50;4953240;29;20502;-66
2022/09/20 07:57:28;;;;;;;11.43;3.08;;;;;;;12.62;97.50;102273.16;4953107;29;20506;-66
2022/09/20 07:59:53;;;;;;;9.93;3.15;;;;;;;12.69;96.68;102274.13;4953190;28;20035;-66
2022/09/20 08:02:19;;;;;;;6.03;3.42;;;;;;;12.73;95.52;102274.59;4952895;28;20031;-65
2022/09/20 08:04:44;;;;;;;8.40;2.40;;;;;;;12.82;94.90;102278.09;4952994;29;20023;-68
2022/09/20 08:07:11;;;;;;;7.53;2.78;;;;;;;12.89;93.78;102281.69;4953151;29;20428;-69
2022/09/20 08:09:36;;;;;;;5.72;1.80;;;;;;;12.89;93.00;102261.13;4952152;28;20046;-69
2022/09/20 08:12:02;;;;;;;5.85;1.88;;;;;;;13.02;91.68;102278.44;4952800;29;20123;-69
2022/09/20 08:14:27;;;;;;;4.00;1.90;;;;;;;13.13;90.08;102289.59;4952614;29;20042;-69
2022/09/20 08:16:58;;;;;;;10.43;3.22;;;;;;;13.21;90.36;102277.16;4952735;28;20032;-69
2022/09/20 08:19:23;;;;;;;6.55;1.83;;;;;;;13.29;89.49;102277.94;4952707;29;20067;-69
2022/09/20 08:21:51;;;;;;;6.93;2.63;;;;;;;13.44;90.41;102278.00;4952625;29;20027;-69
2022/09/20 08:24:17;;;;;;;5.03;1.92;;;;;;;13.68;88.26;102281.50;4952655;29;20031;-70
2022/09/20 08:26:43;;;;;;;4.00;0.90;;;;;;;13.84;83.10;102283.19;4952222;28;20039;-69
2022/09/20 08:29:10;;;;;;;8.05;2.03;;;;;;;13.93;84.98;102284.75;4952690;29;20040;-69
2022/09/20 08:31:39;;;;;;;5.30;1.40;;;;;;;13.97;84.42;102286.88;4952501;28;20027;-69
2022/09/20 08:34:05;;;;;;;4.90;2.20;;;;;;;14.00;83.01;102280.31;4952413;29;20027;-69
2022/09/20 08:36:33;;;;;;;3.58;1.23;;;;;;;14.06;83.12;102289.47;4952331;29;20125;-69
2022/09/20 08:38:59;;;;;;;5.47;1.73;;;;;;;14.12;82.10;102294.09;4934044;29;20067;-69
2022/09/20 08:41:35;;;;;;;3.75;1.13;;;;;;;14.09;78.47;102289.09;4952015;28;20094;-70
2022/09/20 08:44:10;;;;;;;9.50;1.70;;;;;;;14.11;78.58;102303.16;4952182;28;20774;-69
2022/09/20 08:46:40;;;;;;;3.42;1.70;;;;;;;14.05;79.33;102304.75;4935307;29;20049;-69
2022/09/20 08:49:09;;;;;;;2.80;1.35;;;;;;;13.99;79.11;102303.63;4933972;29;20024;-69
2022/09/20 08:51:37;;;;;;;4.60;1.35;;;;;;;13.88;79.92;102298.69;4952211;29;20526;-69
2022/09/20 08:54:06;;;;;;;3.05;1.48;;;;;;;13.94;80.26;102310.56;4952071;29;20090;-70
2022/09/20 08:56:36;;;;;;;4.22;1.30;;;;;;;14.04;76.74;102313.78;4951847;29;20078;-69
2022/09/20 08:59:07;;;;;;;4.43;1.80;;;;;;;14.12;77.29;102308.38;4951807;28;20042;-69
2022/09/20 09:01:33;;;;;;;3.95;1.50;;;;;;;14.26;78.96;102312.06;4951833;29;20032;-70
2022/09/20 09:04:14;;;;;;;4.93;1.10;;;;;;;14.40;76.67;102307.69;4934670;29;20176;-69
2022/09/20 09:06:41;;;;;;;3.47;1.15;;;;;;;14.54;75.58;102300.66;4934542;29;20031;-65
2022/09/20 09:09:16;;;;;;;6.43;1.85;;;;;;;14.78;77.08;102311.13;4951399;29;20059;-65
2022/09/20 09:11:42;;;;;;;3.20;1.40;;;;;;;14.90;75.11;102309.56;4951827;29;20019;-65
2022/09/20 09:16:59;;;;;;;3.70;1.60;;;;;;;14.81;74.28;102289.25;4951740;29;20042;-65
2022/09/20 09:19:54;;;;;;;3.60;1.38;;;;;;;14.85;77.74;102306.63;4951234;28;20091;-65
2022/09/20 09:22:39;;;;;;;5.22;1.30;;;;;;;14.72;73.08;102311.84;4951718;29;20035;-65
2022/09/20 09:25:33;;;;;;;8.18;2.20;;;;;;;14.59;75.49;102309.84;4951536;28;20486;-65
2022/09/20 09:28:06;;;;;;;3.25;1.27;;;;;;;14.46;72.93;102306.94;4951198;28;20058;-65
2022/09/20 09:30:31;;;;;;;5.90;1.35;;;;;;;14.37;71.04;102314.28;4951503;29;20066;-66
2022/09/20 09:33:25;;;;;;;6.00;0.80;;;;;;;14.32;74.12;102310.47;4951197;29;20117;-66
2022/09/20 09:35:58;;;;;;;3.25;1.02;;;;;;;14.25;72.28;102313.91;4951297;29;20027;-66
2022/09/20 09:38:26;;;;;;;3.67;0.95;;;;;;;14.19;73.77;102324.53;4951072;29;20031;-65
2022/09/20 09:41:00;;;;;;;4.97;1.00;;;;;;;14.12;74.18;102324.47;4951245;29;20039;-65
2022/09/20 09:43:36;;;;;;;5.05;1.27;;;;;;;14.09;76.05;102318.59;4951200;29;20093;-66
2022/09/20 09:46:20;;;;;;;3.72;1.17;;;;;;;14.13;75.03;102325.28;4951273;29;20030;-65
2022/09/20 09:48:49;;;;;;;3.63;1.17;;;;;;;14.03;73.74;102320.19;4951048;28;20038;-67
2022/09/20 09:51:19;;;;;;;7.25;1.02;;;;;;;13.95;75.70;102333.69;4950981;29;20031;-67
2022/09/20 09:53:47;;;;;;;5.10;1.52;;;;;;;13.69;79.76;102340.28;4951132;29;20090;-67
2022/09/20 09:56:28;;;;;;;4.68;1.83;;;;;;;13.38;84.16;102341.16;4951019;29;20070;-67
2022/09/20 09:59:02;;;;;;;6.78;1.40;;;;;;;13.15;86.13;102338.47;4951235;29;20106;-65
2022/09/20 10:01:49;;;;;;;5.93;1.48;;;;;;;13.06;87.62;102334.16;4951147;29;20416;-66
2022/09/20 10:04:28;;;;;;;4.78;1.92;;;;;;;13.00;88.60;102334.06;4950900;28;20039;-68
2022/09/20 10:07:00;;;;;;;2.25;1.45;;;;;;;13.03;88.68;102341.72;4950665;29;20031;-65
2022/09/20 10:09:55;;;;;;;4.85;1.48;;;;;;;13.19;88.12;102338.13;4950626;29;20043;-66
2022/09/20 10:12:35;;;;;;;1.90;1.00;;;;;;;13.26;88.01;102329.22;4950747;29;20027;-65
2022/09/20 10:15:14;;;;;;;45.35;7.30;;;;;;;13.44;88.96;102328.94;4950870;29;20562;-67
2022/09/20 10:17:48;;;;;;;4.07;1.27;;;;;;;13.61;86.97;102334.16;4950256;29;20031;-67
2022/09/20 10:20:40;;;;;;;5.10;1.20;;;;;;;13.95;86.97;102321.09;4950724;29;20043;-67
2022/09/20 10:23:21;;;;;;;6.28;1.92;;;;;;;14.31;82.71;102322.25;4950668;29;20031;-67
2022/09/20 10:26:04;;;;;;;3.00;1.77;;;;;;;14.46;80.77;102333.78;4950762;29;20030;-67
2022/09/20 10:28:47;;;;;;;8.23;1.48;;;;;;;14.55;81.58;102330.03;4950600;28;20576;-67
2022/09/20 10:31:39;;;;;;;4.35;1.38;;;;;;;14.56;79.89;102320.94;4950762;28;20090;-67
2022/09/20 10:34:11;;;;;;;7.78;2.53;;;;;;;14.50;78.94;102329.72;4954792;29;20455;-67
2022/09/20 10:36:59;;;;;;;1.20;1.20;;;;;;;14.38;79.08;102326.69;4954748;29;20031;-67
2022/09/20 10:39:33;;;;;;;3.80;1.02;;;;;;;14.36;78.67;102323.34;4929093;29;20459;-67
2022/09/20 10:45:27;;;;;;;3.08;1.27;;;;;;;14.37;74.75;102335.75;4954835;29;20052;-66
2022/09/20 10:48:16;;;;;;;2.88;1.35;;;;;;;14.46;76.34;102323.91;4954569;29;20027;-67
2022/09/20 10:50:53;;;;;;;1.10;0.60;;;;;;;14.56;73.51;102325.50;4954674;29;20122;-67
2022/09/20 10:53:40;;;;;;;5.15;1.45;;;;;;;14.60;71.41;102318.75;4954322;29;20019;-67
2022/09/20 10:56:26;;;;;;;7.78;1.33;;;;;;;14.67;72.27;102328.53;4954291;29;20023;-67
2022/09/20 10:59:22;;;;;;;4.32;1.83;;;;;;;14.67;72.04;102331.22;4946081;29;20031;-67
2022/09/20 11:02:10;;;;;;;4.50;0.90;;;;;;;14.64;72.07;102325.38;4935678;29;20035;-67
2022/09/20 11:05:13;;;;;;;1.75;0.80;;;;;;;14.74;72.08;102336.66;4935792;29;20091;-67
2022/09/20 11:07:42;;;;;;;2.40;0.75;;;;;;;14.98;72.99;102337.34;4953963;28;20075;-67
2022/09/20 11:10:24;;;;;;;2.80;0.80;;;;;;;15.30;72.85;102334.22;4953761;28;20038;-67
2022/09/20 11:13:05;;;;;;;4.32;0.82;;;;;;;15.39;72.44;102334.09;4953952;28;20038;-67
2022/09/20 11:15:42;;;;;;;1.70;0.88;;;;;;;15.34;69.27;102337.34;4953664;29;20031;-67
2022/09/20 11:18:22;;;;;;;2.35;0.93;;;;;;;15.32;69.40;102345.56;4953700;29;20041;-67
2022/09/20 11:20:59;;;;;;;6.10;1.25;;;;;;;15.23;70.34;102341.38;4953663;28;20031;-67
2022/09/20 11:23:50;;;;;;;2.85;1.13;;;;;;;15.27;69.68;102344.50;4953310;28;20039;-66
2022/09/20 11:26:36;;;;;;;0.90;0.75;;;;;;;15.24;67.99;102340.34;4932135;29;20078;-66
2022/09/20 11:29:32;;;;;;;2.85;1.25;;;;;;;15.32;69.27;102345.56;4953514;29;20058;-67
2022/09/20 11:32:29;;;;;;;1.23;1.13;;;;;;;15.35;67.94;102352.44;4938066;28;20099;-66
2022/09/20 11:35:16;;;;;;;7.40;1.48;;;;;;;15.31;68.31;102354.69;4938877;28;20023;-65
2022/09/20 11:37:47;;;;;;;3.38;0.77;;;;;;;15.17;65.86;102352.03;4939026;28;20031;-65
2022/09/20 11:40:32;;;;;;;3.23;1.13;;;;;;;15.05;68.39;102357.91;4921773;28;20031;-63
2022/09/20 11:43:01;;;;;;;2.30;0.47;;;;;;;14.95;66.23;102361.91;4937357;28;20027;-62
2022/09/20 11:45:27;;;;;;;4.65;0.95;;;;;;;14.80;65.79;102365.47;4939036;28;20027;-67
2022/09/20 11:48:22;;;;;;;3.38;1.23;;;;;;;14.76;67.77;102358.81;4938180;28;20031;-64
2022/09/20 11:51:19;;;;;;;1.58;0.75;;;;;;;14.74;69.75;102347.41;4939136;28;20149;-64
2022/09/20 11:54:22;;;;;;;3.20;1.13;;;;;;;14.81;68.11;102359.06;4938168;28;20016;-63
2022/09/20 11:56:50;;;;;;;2.05;0.60;;;;;;;14.77;68.46;102352.41;4938245;28;20047;-71
2022/09/20 11:59:30;;;;;;;2.08;1.65;;;;;;;14.79;69.33;102353.06;4938630;28;20383;-69
2022/09/20 12:02:00;;;;;;;1.00;0.50;;;;;;;14.66;68.68;102352.88;4938067;28;20031;-68
2022/09/20 12:04:29;;;;;;;6.03;0.90;;;;;;;14.66;69.42;102361.78;4937884;28;20035;-70
2022/09/20 12:07:21;;;;;;;1.83;0.63;;;;;;;14.74;69.91;102368.06;4938935;28;20097;-69
2022/09/20 12:09:58;;;;;;;;;;;;;;;14.80;71.88;102359.25;4929473;28;20511;-69
2022/09/20 12:12:30;;;;;;;2.72;1.48;;;;;;;14.83;72.36;102361.59;4938711;28;20396;-70
2022/09/20 12:14:58;;;;;;;3.13;1.00;;;;;;;14.89;72.30;102360.81;4938518;28;20046;-70
2022/09/20 12:17:45;;;;;;;3.17;1.23;;;;;;;14.93;69.34;102353.22;4935827;28;20123;-73